createdAt,value
2022-10-11T00:02:40.474Z,0.00
2022-10-11T00:07:41.292Z,0.00
2022-10-11T00:12:41.980Z,0.00
2022-10-11T00:17:42.733Z,0.00
2022-10-11T00:22:43.474Z,0.00
2022-10-11T00:27:44.192Z,0.00
2022-10-11T00:32:44.975Z,0.00
2022-10-11T00:37:45.664Z,0.00
2022-10-11T00:42:46.526Z,0.00
2022-10-11T00:47:47.205Z,0.00
2022-10-11T00:52:48.029Z,0.00
2022-10-11T00:57:48.821Z,0.00
2022-10-11T01:02:49.527Z,0.00
2022-10-11T01:07:50.239Z,0.00
2022-10-11T01:12:50.976Z,0.00
2022-10-11T01:17:51.727Z,0.00
2022-10-11T01:22:52.451Z,0.00
2022-10-11T01:27:53.302Z,0.00
2022-10-11T01:32:54.034Z,0.00
2022-10-11T01:37:54.789Z,0.00
2022-10-11T01:42:55.528Z,0.00
2022-10-11T01:47:56.310Z,0.00
2022-10-11T01:52:56.989Z,0.00
2022-10-11T01:57:57.705Z,0.00
2022-10-11T02:02:58.444Z,0.00
2022-10-11T02:07:59.208Z,0.00
2022-10-11T02:13:00.016Z,0.00
2022-10-11T02:18:00.783Z,0.00
2022-10-11T02:23:01.547Z,0.00
2022-10-11T02:28:02.212Z,0.00
2022-10-11T02:33:02.958Z,0.00
2022-10-11T02:38:03.704Z,0.00
2022-10-11T02:43:04.558Z,0.00
2022-10-11T02:48:05.323Z,0.00
2022-10-11T02:53:06.139Z,0.00
2022-10-11T02:58:06.855Z,0.00
2022-10-11T03:03:07.572Z,0.00
2022-10-11T03:08:08.298Z,0.00
2022-10-11T03:13:09.041Z,0.00
2022-10-11T03:18:09.793Z,0.00
2022-10-11T03:23:10.514Z,0.00
2022-10-11T03:28:11.348Z,0.00
2022-10-11T03:33:12.228Z,0.00
2022-10-11T03:38:13.141Z,0.00
2022-10-11T03:43:13.918Z,0.00
2022-10-11T03:48:15.715Z,0.00
2022-10-11T03:53:23.415Z,0.00
2022-10-11T03:58:16.108Z,0.00
2022-10-11T04:03:16.836Z,0.00
2022-10-11T04:08:17.667Z,0.00
2022-10-11T04:13:18.430Z,0.00
2022-10-11T04:18:19.280Z,0.00
2022-10-11T04:23:20.024Z,0.00
2022-10-11T04:28:20.906Z,0.00
2022-10-11T04:33:21.744Z,0.00
2022-10-11T04:38:22.472Z,0.00
2022-10-11T04:43:23.353Z,0.00
2022-10-11T04:48:24.129Z,0.00
2022-10-11T04:53:24.914Z,0.00
2022-10-11T04:58:25.828Z,0.00
2022-10-11T05:03:26.527Z,2.00
2022-10-11T05:08:27.364Z,1.00
2022-10-11T05:13:28.169Z,3.00
2022-10-11T05:18:28.914Z,14.00
2022-10-11T05:23:29.589Z,30.00
2022-10-11T05:28:30.458Z,54.00
2022-10-11T05:33:31.384Z,93.00
2022-10-11T05:38:32.180Z,149.00
2022-10-11T05:43:33.025Z,221.00
2022-10-11T05:48:33.755Z,314.00
2022-10-11T05:53:34.595Z,367.00
2022-10-11T05:58:35.421Z,449.00
2022-10-11T06:03:36.203Z,520.00
2022-10-11T06:08:36.918Z,625.00
2022-10-11T06:13:37.619Z,677.00
2022-10-11T06:18:38.402Z,780.00
2022-10-11T06:23:39.201Z,836.00
2022-10-11T06:28:40.034Z,961.00
2022-10-11T06:33:41.062Z,992.00
2022-10-11T06:38:44.949Z,1094.00
2022-10-11T06:43:42.140Z,1229.00
2022-10-11T06:48:42.936Z,1344.00
2022-10-11T06:53:43.608Z,1397.00
2022-10-11T06:58:44.452Z,1504.00
2022-10-11T07:03:45.279Z,1691.00
2022-10-11T07:08:46.059Z,1712.00
2022-10-11T07:13:46.809Z,1842.00
2022-10-11T07:18:47.608Z,1817.00
2022-10-11T07:23:48.370Z,394.00
2022-10-11T07:28:49.303Z,2181.00
2022-10-11T07:33:49.637Z,1158.00
2022-10-11T07:38:50.429Z,1293.00
2022-10-11T07:43:51.261Z,2611.00
2022-10-11T07:48:51.986Z,2449.00
2022-10-11T07:53:52.644Z,2423.00
2022-10-11T07:58:53.362Z,2827.00
2022-10-11T08:03:53.986Z,2968.00
2022-10-11T08:08:54.816Z,2577.00
2022-10-11T08:13:55.595Z,718.00
2022-10-11T08:18:56.366Z,2997.00
2022-10-11T08:23:57.210Z,3129.00
2022-10-11T08:28:58.106Z,2826.00
2022-10-11T08:33:58.846Z,3139.00
2022-10-11T08:38:59.700Z,3175.00
2022-10-11T08:44:00.451Z,3307.00
2022-10-11T08:49:01.194Z,3441.00
2022-10-11T08:54:07.145Z,3486.00
2022-10-11T08:59:03.412Z,3583.00
2022-10-11T09:04:03.082Z,3708.00
2022-10-11T09:09:03.806Z,3642.00
2022-10-11T09:14:04.627Z,3834.00
2022-10-11T09:19:05.408Z,3897.00
2022-10-11T09:24:06.187Z,3866.00
2022-10-11T09:29:07.132Z,4031.00
2022-10-11T09:34:07.747Z,4020.00
2022-10-11T09:39:08.975Z,4119.00
2022-10-11T09:44:08.694Z,4153.00
2022-10-11T09:49:09.367Z,4217.00
2022-10-11T09:54:16.979Z,4167.00
2022-10-11T09:59:10.647Z,4287.00
2022-10-11T10:04:11.345Z,4386.00
2022-10-11T10:09:11.989Z,4398.00
2022-10-11T10:14:12.862Z,4746.00
2022-10-11T10:19:13.537Z,4154.00
2022-10-11T10:24:14.216Z,4374.00
2022-10-11T10:29:15.032Z,4639.00
2022-10-11T10:34:15.866Z,4793.00
2022-10-11T10:39:16.580Z,4648.00
2022-10-11T10:44:17.224Z,4650.00
2022-10-11T10:54:19.546Z,5265.00
2022-10-11T10:59:19.307Z,873.00
2022-10-11T11:04:19.960Z,5871.00
2022-10-11T11:09:20.719Z,4102.00
2022-10-11T11:14:21.420Z,1755.00
2022-10-11T11:19:22.061Z,1458.00
2022-10-11T11:24:22.788Z,2796.00
2022-10-11T11:29:23.540Z,1810.00
2022-10-11T11:34:24.200Z,2269.00
2022-10-11T11:39:24.957Z,873.00
2022-10-11T11:44:27.654Z,6024.00
2022-10-11T11:49:26.426Z,4018.00
2022-10-11T11:54:27.234Z,1867.00
2022-10-11T11:59:28.216Z,2910.00
2022-10-11T12:04:28.585Z,4505.00
2022-10-11T12:09:29.304Z,2836.00
2022-10-11T12:14:29.918Z,1365.00
2022-10-11T12:19:30.659Z,1387.00
2022-10-11T12:24:31.278Z,1485.00
2022-10-11T12:29:32.045Z,1531.00
2022-10-11T12:34:32.879Z,1617.00
2022-10-11T12:39:33.607Z,593.00
2022-10-11T12:44:34.341Z,4943.00
2022-10-11T12:49:35.059Z,4444.00
2022-10-11T12:54:37.270Z,4794.00
2022-10-11T12:59:36.226Z,5622.00
2022-10-11T13:04:36.853Z,4959.00
2022-10-11T13:09:37.677Z,4812.00
2022-10-11T13:14:38.378Z,3059.00
2022-10-11T13:19:42.063Z,4270.00
2022-10-11T13:24:39.686Z,3839.00
2022-10-11T13:29:40.351Z,4606.00
2022-10-11T13:34:41.030Z,4079.00
2022-10-11T13:39:41.758Z,3615.00
2022-10-11T13:44:42.465Z,3373.00
2022-10-11T13:49:43.243Z,2900.00
2022-10-11T13:54:44.008Z,2656.00
2022-10-11T13:59:44.805Z,1552.00
2022-10-11T14:04:45.570Z,879.00
2022-10-11T14:09:46.289Z,2473.00
2022-10-11T14:14:46.980Z,2480.00
2022-10-11T14:19:47.686Z,1132.00
2022-10-11T14:24:48.421Z,2498.00
2022-10-11T14:30:19.783Z,2231.00
2022-10-11T14:34:50.737Z,2278.00
2022-10-11T14:39:50.475Z,1851.00
2022-10-11T14:44:51.130Z,2062.00
2022-10-11T14:49:51.967Z,1815.00
2022-10-11T14:54:52.636Z,1832.00
2022-10-11T14:59:53.325Z,1661.00
2022-10-11T15:04:54.040Z,1529.00
2022-10-11T15:09:55.738Z,1399.00
2022-10-11T15:14:55.562Z,1118.00
2022-10-11T15:19:56.282Z,825.00
2022-10-11T15:24:57.082Z,703.00
2022-10-11T15:29:57.915Z,993.00
2022-10-11T15:34:58.689Z,883.00
2022-10-11T15:39:59.333Z,797.00
2022-10-11T15:45:00.040Z,633.00
2022-10-11T15:50:00.668Z,492.00
2022-10-11T15:55:08.391Z,431.00
2022-10-11T16:00:02.012Z,383.00
2022-10-11T16:05:02.783Z,318.00
2022-10-11T16:10:03.461Z,256.00
2022-10-11T16:15:04.215Z,198.00
2022-10-11T16:20:04.925Z,147.00
2022-10-11T16:25:05.734Z,95.00
2022-10-11T16:30:27.368Z,61.00
2022-10-11T16:35:07.136Z,35.00
2022-10-11T16:40:07.731Z,17.00
2022-10-11T16:45:08.639Z,7.00
2022-10-11T16:50:09.398Z,2.00
2022-10-11T16:55:11.353Z,0.00
2022-10-11T17:00:10.769Z,0.00
2022-10-11T17:05:11.604Z,0.00
2022-10-11T17:10:12.490Z,0.00
2022-10-11T17:15:13.364Z,0.00
2022-10-11T17:20:14.315Z,0.00
2022-10-11T17:25:14.567Z,0.00
2022-10-11T17:30:15.372Z,0.00
2022-10-11T17:35:16.145Z,0.00
2022-10-11T17:40:17.026Z,0.00
2022-10-11T17:45:17.925Z,0.00
2022-10-11T17:50:18.748Z,0.00
2022-10-11T17:55:19.604Z,0.00
2022-10-11T18:00:20.520Z,0.00
2022-10-11T18:05:21.233Z,0.00
2022-10-11T18:10:22.377Z,0.00
2022-10-11T18:15:22.577Z,0.00
2022-10-11T18:20:23.375Z,0.00
2022-10-11T18:25:24.101Z,0.00
2022-10-11T18:30:24.869Z,0.00
2022-10-11T18:35:25.561Z,0.00
2022-10-11T18:40:26.456Z,0.00
2022-10-11T18:45:27.561Z,0.00
2022-10-11T18:50:28.817Z,0.00
2022-10-11T18:55:28.656Z,0.00
2022-10-11T19:00:44.977Z,0.00
2022-10-11T19:05:31.129Z,0.00
2022-10-11T19:10:30.861Z,0.00
2022-10-11T19:15:32.016Z,0.00
2022-10-11T19:20:32.167Z,0.00
2022-10-11T19:25:32.911Z,0.00
2022-10-11T19:30:33.716Z,0.00
2022-10-11T19:35:34.424Z,0.00
2022-10-11T19:40:35.195Z,0.00
2022-10-11T19:45:35.912Z,0.00
2022-10-11T19:50:36.632Z,0.00
2022-10-11T19:55:37.562Z,0.00
2022-10-11T20:00:38.412Z,0.00
2022-10-11T20:05:39.248Z,0.00
2022-10-11T20:10:39.989Z,0.00
2022-10-11T20:15:40.772Z,0.00
2022-10-11T20:20:41.562Z,0.00
2022-10-11T20:25:42.294Z,0.00
2022-10-11T20:30:43.084Z,0.00
2022-10-11T20:35:43.794Z,0.00
2022-10-11T20:40:44.806Z,0.00
2022-10-11T20:45:45.027Z,0.00
2022-10-11T20:50:45.810Z,0.00
2022-10-11T20:55:46.547Z,0.00
2022-10-11T21:00:47.278Z,0.00
2022-10-11T21:05:48.032Z,0.00
2022-10-11T21:10:48.800Z,0.00
2022-10-11T21:15:49.534Z,0.00
2022-10-11T21:20:50.570Z,0.00
2022-10-11T21:25:51.425Z,0.00
2022-10-11T21:30:52.285Z,0.00
2022-10-11T21:35:53.143Z,0.00
2022-10-11T21:40:53.810Z,0.00
2022-10-11T21:45:54.591Z,0.00
2022-10-11T21:50:55.305Z,0.00
2022-10-11T21:56:03.046Z,0.00
2022-10-11T22:00:56.808Z,0.00
2022-10-11T22:05:57.532Z,0.00
2022-10-11T22:10:58.230Z,0.00
2022-10-11T22:15:59.129Z,0.00
2022-10-11T22:20:59.951Z,0.00
2022-10-11T22:26:00.647Z,0.00
2022-10-11T22:31:01.399Z,0.00
2022-10-11T22:36:02.120Z,0.00
2022-10-11T22:41:02.897Z,0.00
2022-10-11T22:46:03.612Z,0.00
2022-10-11T22:51:04.330Z,0.00
2022-10-11T22:56:05.078Z,0.00
2022-10-11T23:01:05.822Z,0.00
2022-10-11T23:06:06.501Z,0.00
2022-10-11T23:11:07.284Z,0.00
2022-10-11T23:16:07.988Z,0.00
2022-10-11T23:21:08.756Z,0.00
2022-10-11T23:26:09.507Z,0.00
2022-10-11T23:31:10.235Z,0.00
2022-10-11T23:36:10.979Z,0.00
2022-10-11T23:41:11.706Z,0.00
2022-10-11T23:46:12.609Z,0.00
2022-10-11T23:51:13.431Z,0.00
2022-10-11T23:56:14.121Z,0.00
